sensor_id;sensor_type;location;lat;lon;timestamp;temperature;humidity
65396;HTU21D;52004;45.136;39.010;2022-09-12T00:00:25;18.98;49.50
65396;HTU21D;52004;45.136;39.010;2022-09-12T00:02:52;18.94;49.53
65396;HTU21D;52004;45.136;39.010;2022-09-12T00:05:18;18.92;49.58
65396;HTU21D;52004;45.136;39.010;2022-09-12T00:07:44;18.88;49.62
65396;HTU21D;52004;45.136;39.010;2022-09-12T00:10:10;18.84;49.66
65396;HTU21D;52004;45.136;39.010;2022-09-12T00:12:36;18.80;49.67
65396;HTU21D;52004;45.136;39.010;2022-09-12T00:15:02;18.78;49.72
65396;HTU21D;52004;45.136;39.010;2022-09-12T00:17:29;18.74;49.76
65396;HTU21D;52004;45.136;39.010;2022-09-12T00:19:54;18.73;49.77
65396;HTU21D;52004;45.136;39.010;2022-09-12T00:22:21;18.69;49.79
65396;HTU21D;52004;45.136;39.010;2022-09-12T00:24:47;18.66;49.83
65396;HTU21D;52004;45.136;39.010;2022-09-12T00:27:12;18.62;49.89
65396;HTU21D;52004;45.136;39.010;2022-09-12T00:29:38;18.58;49.92
65396;HTU21D;52004;45.136;39.010;2022-09-12T00:32:04;18.55;49.95
65396;HTU21D;52004;45.136;39.010;2022-09-12T00:34:30;18.52;50.00
65396;HTU21D;52004;45.136;39.010;2022-09-12T00:36:56;18.49;49.99
65396;HTU21D;52004;45.136;39.010;2022-09-12T00:39:22;18.47;50.03
65396;HTU21D;52004;45.136;39.010;2022-09-12T00:41:48;18.43;50.07
65396;HTU21D;52004;45.136;39.010;2022-09-12T00:46:47;18.37;50.16
65396;HTU21D;52004;45.136;39.010;2022-09-12T00:51:41;18.32;50.22
65396;HTU21D;52004;45.136;39.010;2022-09-12T00:54:09;18.24;50.26
65396;HTU21D;52004;45.136;39.010;2022-09-12T00:56:37;18.18;50.37
65396;HTU21D;52004;45.136;39.010;2022-09-12T00:59:14;18.13;50.48
65396;HTU21D;52004;45.136;39.010;2022-09-12T01:01:41;18.11;50.51
65396;HTU21D;52004;45.136;39.010;2022-09-12T01:04:09;18.10;50.54
65396;HTU21D;52004;45.136;39.010;2022-09-12T01:06:36;18.08;50.59
65396;HTU21D;52004;45.136;39.010;2022-09-12T01:09:04;18.08;50.62
65396;HTU21D;52004;45.136;39.010;2022-09-12T01:11:31;18.09;50.63
65396;HTU21D;52004;45.136;39.010;2022-09-12T01:13:59;18.08;50.66
65396;HTU21D;52004;45.136;39.010;2022-09-12T01:16:24;18.09;50.69
65396;HTU21D;52004;45.136;39.010;2022-09-12T01:19:07;18.07;50.70
65396;HTU21D;52004;45.136;39.010;2022-09-12T01:32:07;17.93;50.90
65396;HTU21D;52004;45.136;39.010;2022-09-12T01:42:22;17.85;51.07
65396;HTU21D;52004;45.136;39.010;2022-09-12T01:44:55;17.84;51.10
65396;HTU21D;52004;45.136;39.010;2022-09-12T01:49:54;17.80;51.17
65396;HTU21D;52004;45.136;39.010;2022-09-12T01:52:27;17.79;51.25
65396;HTU21D;52004;45.136;39.010;2022-09-12T01:55:00;17.79;51.31
65396;HTU21D;52004;45.136;39.010;2022-09-12T01:57:32;17.82;51.31
65396;HTU21D;52004;45.136;39.010;2022-09-12T02:00:03;0.00;51.32
65396;HTU21D;52004;45.136;39.010;2022-09-12T02:03:40;17.82;51.32
65396;HTU21D;52004;45.136;39.010;2022-09-12T02:05:36;17.79;51.31
65396;HTU21D;52004;45.136;39.010;2022-09-12T02:08:13;17.75;51.40
65396;HTU21D;52004;45.136;39.010;2022-09-12T02:10:42;17.73;51.49
65396;HTU21D;52004;45.136;39.010;2022-09-12T02:13:14;17.72;51.50
65396;HTU21D;52004;45.136;39.010;2022-09-12T02:15:46;17.69;51.50
65396;HTU21D;52004;45.136;39.010;2022-09-12T02:18:14;17.65;51.56
65396;HTU21D;52004;45.136;39.010;2022-09-12T02:20:42;17.62;51.59
65396;HTU21D;52004;45.136;39.010;2022-09-12T02:23:11;17.60;51.64
65396;HTU21D;52004;45.136;39.010;2022-09-12T02:25:40;17.60;51.67
65396;HTU21D;52004;45.136;39.010;2022-09-12T02:28:10;17.58;51.68
65396;HTU21D;52004;45.136;39.010;2022-09-12T02:33:26;17.55;51.72
65396;HTU21D;52004;45.136;39.010;2022-09-12T02:36:13;17.52;51.72
65396;HTU21D;52004;45.136;39.010;2022-09-12T02:38:43;17.51;51.77
65396;HTU21D;52004;45.136;39.010;2022-09-12T02:41:10;17.50;51.76
65396;HTU21D;52004;45.136;39.010;2022-09-12T02:43:36;17.47;51.79
65396;HTU21D;52004;45.136;39.010;2022-09-12T02:46:04;17.45;51.85
65396;HTU21D;52004;45.136;39.010;2022-09-12T02:48:33;17.43;51.85
65396;HTU21D;52004;45.136;39.010;2022-09-12T02:51:00;17.41;51.86
65396;HTU21D;52004;45.136;39.010;2022-09-12T02:53:27;17.38;51.86
65396;HTU21D;52004;45.136;39.010;2022-09-12T02:55:53;17.33;51.92
65396;HTU21D;52004;45.136;39.010;2022-09-12T02:58:21;17.30;51.99
65396;HTU21D;52004;45.136;39.010;2022-09-12T03:06:03;17.19;52.12
65396;HTU21D;52004;45.136;39.010;2022-09-12T03:08:41;17.18;52.17
65396;HTU21D;52004;45.136;39.010;2022-09-12T03:13:51;17.15;52.27
65396;HTU21D;52004;45.136;39.010;2022-09-12T03:16:22;17.15;52.28
65396;HTU21D;52004;45.136;39.010;2022-09-12T03:21:57;0.00;52.36
65396;HTU21D;52004;45.136;39.010;2022-09-12T03:24:18;17.17;52.40
65396;HTU21D;52004;45.136;39.010;2022-09-12T03:26:53;17.21;52.38
65396;HTU21D;52004;45.136;39.010;2022-09-12T03:29:19;17.22;52.40
65396;HTU21D;52004;45.136;39.010;2022-09-12T03:31:47;17.26;52.43
65396;HTU21D;52004;45.136;39.010;2022-09-12T03:34:13;17.28;52.42
65396;HTU21D;52004;45.136;39.010;2022-09-12T03:36:39;17.31;52.41
65396;HTU21D;52004;45.136;39.010;2022-09-12T03:39:06;17.32;52.43
65396;HTU21D;52004;45.136;39.010;2022-09-12T03:41:32;17.34;52.47
65396;HTU21D;52004;45.136;39.010;2022-09-12T03:43:58;17.36;52.49
65396;HTU21D;52004;45.136;39.010;2022-09-12T03:46:24;17.38;52.53
65396;HTU21D;52004;45.136;39.010;2022-09-12T03:48:49;17.40;52.56
65396;HTU21D;52004;45.136;39.010;2022-09-12T03:51:15;17.44;52.57
65396;HTU21D;52004;45.136;39.010;2022-09-12T03:53:41;17.47;52.61
65396;HTU21D;52004;45.136;39.010;2022-09-12T03:56:08;17.50;52.62
65396;HTU21D;52004;45.136;39.010;2022-09-12T03:58:34;17.56;52.65
65396;HTU21D;52004;45.136;39.010;2022-09-12T04:01:10;17.63;52.65
65396;HTU21D;52004;45.136;39.010;2022-09-12T04:03:40;17.68;52.62
65396;HTU21D;52004;45.136;39.010;2022-09-12T04:06:07;17.70;52.64
65396;HTU21D;52004;45.136;39.010;2022-09-12T04:08:33;17.75;52.65
65396;HTU21D;52004;45.136;39.010;2022-09-12T04:11:03;17.79;52.69
65396;HTU21D;52004;45.136;39.010;2022-09-12T04:13:29;17.88;52.71
65396;HTU21D;52004;45.136;39.010;2022-09-12T04:15:58;17.93;52.69
65396;HTU21D;52004;45.136;39.010;2022-09-12T04:18:25;17.99;52.69
65396;HTU21D;52004;45.136;39.010;2022-09-12T04:20:51;18.04;52.65
65396;HTU21D;52004;45.136;39.010;2022-09-12T04:23:17;18.08;52.69
65396;HTU21D;52004;45.136;39.010;2022-09-12T04:25:43;18.09;52.71
65396;HTU21D;52004;45.136;39.010;2022-09-12T04:28:09;18.12;52.72
65396;HTU21D;52004;45.136;39.010;2022-09-12T04:30:34;18.18;52.78
65396;HTU21D;52004;45.136;39.010;2022-09-12T04:33:00;18.25;52.83
65396;HTU21D;52004;45.136;39.010;2022-09-12T04:35:26;18.36;52.88
65396;HTU21D;52004;45.136;39.010;2022-09-12T04:37:52;18.48;52.88
65396;HTU21D;52004;45.136;39.010;2022-09-12T04:40:18;18.62;52.91
65396;HTU21D;52004;45.136;39.010;2022-09-12T04:42:44;18.77;52.85
65396;HTU21D;52004;45.136;39.010;2022-09-12T04:45:10;18.88;52.80
65396;HTU21D;52004;45.136;39.010;2022-09-12T04:47:37;18.99;52.76
65396;HTU21D;52004;45.136;39.010;2022-09-12T04:50:03;19.06;52.76
65396;HTU21D;52004;45.136;39.010;2022-09-12T04:52:30;19.12;52.73
65396;HTU21D;52004;45.136;39.010;2022-09-12T04:54:55;19.20;52.76
65396;HTU21D;52004;45.136;39.010;2022-09-12T04:57:46;19.26;52.70
65396;HTU21D;52004;45.136;39.010;2022-09-12T05:00:12;19.31;52.73
65396;HTU21D;52004;45.136;39.010;2022-09-12T05:02:39;19.38;52.75
65396;HTU21D;52004;45.136;39.010;2022-09-12T05:05:05;19.45;52.81
65396;HTU21D;52004;45.136;39.010;2022-09-12T05:07:31;19.55;52.76
65396;HTU21D;52004;45.136;39.010;2022-09-12T05:09:57;19.69;52.73
65396;HTU21D;52004;45.136;39.010;2022-09-12T05:12:25;19.81;52.72
65396;HTU21D;52004;45.136;39.010;2022-09-12T05:14:51;19.92;52.71
65396;HTU21D;52004;45.136;39.010;2022-09-12T05:17:17;20.03;52.69
65396;HTU21D;52004;45.136;39.010;2022-09-12T05:19:43;20.15;52.70
65396;HTU21D;52004;45.136;39.010;2022-09-12T05:22:09;20.27;52.72
65396;HTU21D;52004;45.136;39.010;2022-09-12T05:24:35;20.37;52.67
65396;HTU21D;52004;45.136;39.010;2022-09-12T05:27:04;20.46;52.62
65396;HTU21D;52004;45.136;39.010;2022-09-12T05:29:30;20.53;52.65
65396;HTU21D;52004;45.136;39.010;2022-09-12T05:31:56;20.62;52.67
65396;HTU21D;52004;45.136;39.010;2022-09-12T05:34:22;20.73;52.69
65396;HTU21D;52004;45.136;39.010;2022-09-12T05:36:48;20.85;52.63
65396;HTU21D;52004;45.136;39.010;2022-09-12T05:39:14;20.93;52.62
65396;HTU21D;52004;45.136;39.010;2022-09-12T05:41:40;21.00;52.56
65396;HTU21D;52004;45.136;39.010;2022-09-12T05:44:09;21.03;52.49
65396;HTU21D;52004;45.136;39.010;2022-09-12T05:46:36;21.05;52.46
65396;HTU21D;52004;45.136;39.010;2022-09-12T05:49:03;21.06;52.43
65396;HTU21D;52004;45.136;39.010;2022-09-12T05:51:31;21.10;52.46
65396;HTU21D;52004;45.136;39.010;2022-09-12T05:53:58;21.16;52.53
65396;HTU21D;52004;45.136;39.010;2022-09-12T05:56:25;21.25;52.60
65396;HTU21D;52004;45.136;39.010;2022-09-12T05:58:53;21.34;52.57
65396;HTU21D;52004;45.136;39.010;2022-09-12T06:01:19;21.43;52.54
65396;HTU21D;52004;45.136;39.010;2022-09-12T06:03:48;21.51;52.53
65396;HTU21D;52004;45.136;39.010;2022-09-12T06:06:15;21.59;52.56
65396;HTU21D;52004;45.136;39.010;2022-09-12T06:08:42;21.66;52.55
65396;HTU21D;52004;45.136;39.010;2022-09-12T06:11:09;21.75;52.56
65396;HTU21D;52004;45.136;39.010;2022-09-12T06:13:36;21.84;52.61
65396;HTU21D;52004;45.136;39.010;2022-09-12T06:16:04;21.92;52.52
65396;HTU21D;52004;45.136;39.010;2022-09-12T06:18:31;21.98;52.55
65396;HTU21D;52004;45.136;39.010;2022-09-12T06:21:00;0.00;52.59
65396;HTU21D;52004;45.136;39.010;2022-09-12T06:23:27;22.16;52.53
65396;HTU21D;52004;45.136;39.010;2022-09-12T06:25:52;22.21;52.55
65396;HTU21D;52004;45.136;39.010;2022-09-12T06:28:18;22.33;52.56
65396;HTU21D;52004;45.136;39.010;2022-09-12T06:30:44;22.43;52.61
65396;HTU21D;52004;45.136;39.010;2022-09-12T06:33:10;22.57;52.72
65396;HTU21D;52004;45.136;39.010;2022-09-12T06:35:37;22.76;52.75
65396;HTU21D;52004;45.136;39.010;2022-09-12T06:38:03;22.95;52.65
65396;HTU21D;52004;45.136;39.010;2022-09-12T06:40:30;23.12;52.62
65396;HTU21D;52004;45.136;39.010;2022-09-12T06:42:56;23.27;52.54
65396;HTU21D;52004;45.136;39.010;2022-09-12T06:45:31;23.41;52.43
65396;HTU21D;52004;45.136;39.010;2022-09-12T06:47:57;23.51;52.26
65396;HTU21D;52004;45.136;39.010;2022-09-12T06:50:23;0.00;52.06
65396;HTU21D;52004;45.136;39.010;2022-09-12T06:52:49;23.56;52.02
65396;HTU21D;52004;45.136;39.010;2022-09-12T06:55:16;23.56;51.99
65396;HTU21D;52004;45.136;39.010;2022-09-12T06:57:42;23.57;52.04
65396;HTU21D;52004;45.136;39.010;2022-09-12T07:00:08;23.67;52.15
65396;HTU21D;52004;45.136;39.010;2022-09-12T07:02:35;23.79;52.19
65396;HTU21D;52004;45.136;39.010;2022-09-12T07:05:00;23.91;52.12
65396;HTU21D;52004;45.136;39.010;2022-09-12T07:07:26;24.04;52.07
65396;HTU21D;52004;45.136;39.010;2022-09-12T07:09:55;24.14;51.97
65396;HTU21D;52004;45.136;39.010;2022-09-12T07:13:21;24.24;51.96
65396;HTU21D;52004;45.136;39.010;2022-09-12T07:15:47;24.34;51.95
65396;HTU21D;52004;45.136;39.010;2022-09-12T07:18:13;0.00;51.89
65396;HTU21D;52004;45.136;39.010;2022-09-12T07:21:05;24.58;51.88
65396;HTU21D;52004;45.136;39.010;2022-09-12T07:23:31;24.72;51.93
65396;HTU21D;52004;45.136;39.010;2022-09-12T07:25:58;24.90;51.91
65396;HTU21D;52004;45.136;39.010;2022-09-12T07:28:24;25.07;51.86
65396;HTU21D;52004;45.136;39.010;2022-09-12T07:30:50;0.00;51.73
65396;HTU21D;52004;45.136;39.010;2022-09-12T07:33:19;25.35;51.59
65396;HTU21D;52004;45.136;39.010;2022-09-12T07:35:45;25.42;51.47
65396;HTU21D;52004;45.136;39.010;2022-09-12T07:38:11;25.50;51.37
65396;HTU21D;52004;45.136;39.010;2022-09-12T07:40:37;25.59;51.31
65396;HTU21D;52004;45.136;39.010;2022-09-12T07:43:03;25.65;51.21
65396;HTU21D;52004;45.136;39.010;2022-09-12T07:45:29;25.71;51.11
65396;HTU21D;52004;45.136;39.010;2022-09-12T07:47:55;25.78;51.11
65396;HTU21D;52004;45.136;39.010;2022-09-12T07:50:21;25.84;50.93
65396;HTU21D;52004;45.136;39.010;2022-09-12T07:52:47;25.83;50.76
65396;HTU21D;52004;45.136;39.010;2022-09-12T07:55:13;25.77;50.62
65396;HTU21D;52004;45.136;39.010;2022-09-12T07:57:39;25.68;50.49
65396;HTU21D;52004;45.136;39.010;2022-09-12T08:00:05;25.57;50.43
65396;HTU21D;52004;45.136;39.010;2022-09-12T08:02:37;0.00;50.36
65396;HTU21D;52004;45.136;39.010;2022-09-12T08:05:03;25.33;50.34
65396;HTU21D;52004;45.136;39.010;2022-09-12T08:07:29;25.20;50.30
65396;HTU21D;52004;45.136;39.010;2022-09-12T08:09:55;25.10;50.30
65396;HTU21D;52004;45.136;39.010;2022-09-12T08:12:22;25.01;50.30
65396;HTU21D;52004;45.136;39.010;2022-09-12T08:14:47;24.91;50.34
65396;HTU21D;52004;45.136;39.010;2022-09-12T08:17:13;24.84;50.37
65396;HTU21D;52004;45.136;39.010;2022-09-12T08:19:39;24.79;50.38
65396;HTU21D;52004;45.136;39.010;2022-09-12T08:22:05;24.75;50.39
65396;HTU21D;52004;45.136;39.010;2022-09-12T08:24:31;24.70;50.33
65396;HTU21D;52004;45.136;39.010;2022-09-12T08:26:57;24.66;50.28
65396;HTU21D;52004;45.136;39.010;2022-09-12T08:29:23;24.59;50.21
65396;HTU21D;52004;45.136;39.010;2022-09-12T08:31:49;24.49;50.18
65396;HTU21D;52004;45.136;39.010;2022-09-12T08:34:14;24.42;50.22
65396;HTU21D;52004;45.136;39.010;2022-09-12T08:36:43;24.32;50.18
65396;HTU21D;52004;45.136;39.010;2022-09-12T08:39:12;24.18;50.23
65396;HTU21D;52004;45.136;39.010;2022-09-12T08:41:42;24.01;50.41
65396;HTU21D;52004;45.136;39.010;2022-09-12T08:49:29;0.00;50.88
65396;HTU21D;52004;45.136;39.010;2022-09-12T08:51:56;23.77;50.95
65396;HTU21D;52004;45.136;39.010;2022-09-12T08:54:25;23.73;51.01
65396;HTU21D;52004;45.136;39.010;2022-09-12T08:56:52;23.71;51.09
65396;HTU21D;52004;45.136;39.010;2022-09-12T08:59:21;23.72;51.14
65396;HTU21D;52004;45.136;39.010;2022-09-12T09:01:47;0.00;51.22
65396;HTU21D;52004;45.136;39.010;2022-09-12T09:07:25;0.00;51.28
65396;HTU21D;52004;45.136;39.010;2022-09-12T09:09:59;23.88;51.28
65396;HTU21D;52004;45.136;39.010;2022-09-12T09:15:02;23.87;51.31
65396;HTU21D;52004;45.136;39.010;2022-09-12T09:17:44;23.85;51.33
65396;HTU21D;52004;45.136;39.010;2022-09-12T09:20:30;23.87;51.38
65396;HTU21D;52004;45.136;39.010;2022-09-12T09:28:52;0.00;51.47
65396;HTU21D;52004;45.136;39.010;2022-09-12T09:31:20;23.96;51.51
65396;HTU21D;52004;45.136;39.010;2022-09-12T09:33:48;24.01;51.56
65396;HTU21D;52004;45.136;39.010;2022-09-12T09:36:32;24.09;51.64
65396;HTU21D;52004;45.136;39.010;2022-09-12T09:43:51;24.46;51.72
65396;HTU21D;52004;45.136;39.010;2022-09-12T09:46:17;24.56;51.62
65396;HTU21D;52004;45.136;39.010;2022-09-12T09:48:49;24.63;51.50
65396;HTU21D;52004;45.136;39.010;2022-09-12T09:51:16;24.63;51.35
65396;HTU21D;52004;45.136;39.010;2022-09-12T09:53:47;24.58;51.28
65396;HTU21D;52004;45.136;39.010;2022-09-12T09:58:50;24.45;51.30
65396;HTU21D;52004;45.136;39.010;2022-09-12T10:01:16;24.38;51.33
65396;HTU21D;52004;45.136;39.010;2022-09-12T10:03:53;24.33;51.33
65396;HTU21D;52004;45.136;39.010;2022-09-12T10:08:46;24.18;51.39
65396;HTU21D;52004;45.136;39.010;2022-09-12T10:11:17;24.11;51.46
65396;HTU21D;52004;45.136;39.010;2022-09-12T10:16:20;23.97;51.50
65396;HTU21D;52004;45.136;39.010;2022-09-12T10:18:47;0.00;51.51
65396;HTU21D;52004;45.136;39.010;2022-09-12T10:21:17;23.82;51.56
65396;HTU21D;52004;45.136;39.010;2022-09-12T10:23:44;23.75;51.59
65396;HTU21D;52004;45.136;39.010;2022-09-12T10:26:12;23.70;51.66
65396;HTU21D;52004;45.136;39.010;2022-09-12T10:28:39;23.65;51.73
65396;HTU21D;52004;45.136;39.010;2022-09-12T10:31:06;23.67;51.82
65396;HTU21D;52004;45.136;39.010;2022-09-12T10:33:34;23.68;51.89
65396;HTU21D;52004;45.136;39.010;2022-09-12T10:36:02;23.73;51.93
65396;HTU21D;52004;45.136;39.010;2022-09-12T10:38:31;23.81;51.97
65396;HTU21D;52004;45.136;39.010;2022-09-12T10:40:58;23.87;51.98
65396;HTU21D;52004;45.136;39.010;2022-09-12T10:43:29;23.92;51.95
65396;HTU21D;52004;45.136;39.010;2022-09-12T10:45:57;23.89;51.95
65396;HTU21D;52004;45.136;39.010;2022-09-12T10:48:30;23.91;52.01
65396;HTU21D;52004;45.136;39.010;2022-09-12T10:50:57;23.97;52.05
65396;HTU21D;52004;45.136;39.010;2022-09-12T10:53:39;24.01;52.07
65396;HTU21D;52004;45.136;39.010;2022-09-12T10:58:34;24.12;52.12
65396;HTU21D;52004;45.136;39.010;2022-09-12T11:01:09;24.19;52.26
65396;HTU21D;52004;45.136;39.010;2022-09-12T11:03:51;24.32;52.24
65396;HTU21D;52004;45.136;39.010;2022-09-12T11:06:22;24.47;52.20
65396;HTU21D;52004;45.136;39.010;2022-09-12T11:09:05;24.56;52.01
65396;HTU21D;52004;45.136;39.010;2022-09-12T11:14:16;24.55;51.87
65396;HTU21D;52004;45.136;39.010;2022-09-12T11:19:32;24.49;51.85
65396;HTU21D;52004;45.136;39.010;2022-09-12T11:32:21;25.02;51.98
65396;HTU21D;52004;45.136;39.010;2022-09-12T11:37:27;25.22;51.74
65396;HTU21D;52004;45.136;39.010;2022-09-12T11:39:55;25.23;51.66
65396;HTU21D;52004;45.136;39.010;2022-09-12T11:42:28;25.24;51.67
65396;HTU21D;52004;45.136;39.010;2022-09-12T11:45:11;25.27;51.62
65396;HTU21D;52004;45.136;39.010;2022-09-12T11:47:38;25.29;51.63
65396;HTU21D;52004;45.136;39.010;2022-09-12T11:50:11;0.00;51.59
65396;HTU21D;52004;45.136;39.010;2022-09-12T11:52:39;25.28;51.56
65396;HTU21D;52004;45.136;39.010;2022-09-12T11:57:39;25.28;51.64
65396;HTU21D;52004;45.136;39.010;2022-09-12T12:00:08;25.35;51.64
65396;HTU21D;52004;45.136;39.010;2022-09-12T12:07:59;25.52;51.50
65396;HTU21D;52004;45.136;39.010;2022-09-12T12:11:08;0.00;51.57
65396;HTU21D;52004;45.136;39.010;2022-09-12T12:13:16;25.68;51.52
65396;HTU21D;52004;45.136;39.010;2022-09-12T12:15:47;0.00;51.50
65396;HTU21D;52004;45.136;39.010;2022-09-12T12:18:14;25.90;51.44
65396;HTU21D;52004;45.136;39.010;2022-09-12T12:20:41;25.95;51.30
65396;HTU21D;52004;45.136;39.010;2022-09-12T12:23:20;25.95;51.17
65396;HTU21D;52004;45.136;39.010;2022-09-12T12:25:51;25.92;51.08
65396;HTU21D;52004;45.136;39.010;2022-09-12T12:31:02;25.79;51.05
65396;HTU21D;52004;45.136;39.010;2022-09-12T12:38:31;25.66;51.07
65396;HTU21D;52004;45.136;39.010;2022-09-12T12:43:41;25.59;51.08
65396;HTU21D;52004;45.136;39.010;2022-09-12T12:46:09;25.51;51.11
65396;HTU21D;52004;45.136;39.010;2022-09-12T12:48:42;25.45;51.14
65396;HTU21D;52004;45.136;39.010;2022-09-12T12:54:30;25.27;51.22
65396;HTU21D;52004;45.136;39.010;2022-09-12T12:57:00;25.19;51.23
65396;HTU21D;52004;45.136;39.010;2022-09-12T12:59:27;25.12;51.26
65396;HTU21D;52004;45.136;39.010;2022-09-12T13:01:54;25.07;51.32
65396;HTU21D;52004;45.136;39.010;2022-09-12T13:04:21;25.01;51.36
65396;HTU21D;52004;45.136;39.010;2022-09-12T13:07:02;25.00;51.42
65396;HTU21D;52004;45.136;39.010;2022-09-12T13:09:33;24.97;51.48
65396;HTU21D;52004;45.136;39.010;2022-09-12T13:12:06;24.97;51.51
65396;HTU21D;52004;45.136;39.010;2022-09-12T13:14:34;24.95;51.57
65396;HTU21D;52004;45.136;39.010;2022-09-12T13:17:05;24.97;51.56
65396;HTU21D;52004;45.136;39.010;2022-09-12T13:19:33;24.92;51.56
65396;HTU21D;52004;45.136;39.010;2022-09-12T13:22:01;24.87;51.56
65396;HTU21D;52004;45.136;39.010;2022-09-12T13:24:28;24.80;51.61
65396;HTU21D;52004;45.136;39.010;2022-09-12T13:26:54;24.72;51.67
65396;HTU21D;52004;45.136;39.010;2022-09-12T13:29:23;24.63;51.77
65396;HTU21D;52004;45.136;39.010;2022-09-12T13:31:58;24.55;51.88
65396;HTU21D;52004;45.136;39.010;2022-09-12T13:34:26;24.47;51.95
65396;HTU21D;52004;45.136;39.010;2022-09-12T13:37:09;24.41;52.04
65396;HTU21D;52004;45.136;39.010;2022-09-12T13:39:51;24.35;52.12
65396;HTU21D;52004;45.136;39.010;2022-09-12T13:44:48;0.00;52.19
65396;HTU21D;52004;45.136;39.010;2022-09-12T13:47:18;24.27;52.23
65396;HTU21D;52004;45.136;39.010;2022-09-12T13:49:46;24.25;52.22
65396;HTU21D;52004;45.136;39.010;2022-09-12T13:52:22;24.23;52.27
65396;HTU21D;52004;45.136;39.010;2022-09-12T13:54:53;24.20;52.30
65396;HTU21D;52004;45.136;39.010;2022-09-12T13:57:26;24.17;52.29
65396;HTU21D;52004;45.136;39.010;2022-09-12T13:59:53;24.12;52.33
65396;HTU21D;52004;45.136;39.010;2022-09-12T14:02:21;24.08;52.38
65396;HTU21D;52004;45.136;39.010;2022-09-12T14:04:47;24.01;52.40
65396;HTU21D;52004;45.136;39.010;2022-09-12T14:07:37;23.88;52.49
65396;HTU21D;52004;45.136;39.010;2022-09-12T14:10:03;23.79;52.54
65396;HTU21D;52004;45.136;39.010;2022-09-12T14:12:31;23.67;52.65
65396;HTU21D;52004;45.136;39.010;2022-09-12T14:23:33;23.28;53.07
65396;HTU21D;52004;45.136;39.010;2022-09-12T14:26:02;23.23;53.13
65396;HTU21D;52004;45.136;39.010;2022-09-12T14:28:30;23.15;53.19
65396;HTU21D;52004;45.136;39.010;2022-09-12T14:31:58;23.09;53.26
65396;HTU21D;52004;45.136;39.010;2022-09-12T14:33:53;23.05;53.31
65396;HTU21D;52004;45.136;39.010;2022-09-12T14:36:34;23.01;53.35
65396;HTU21D;52004;45.136;39.010;2022-09-12T14:39:02;22.99;53.40
65396;HTU21D;52004;45.136;39.010;2022-09-12T14:41:30;22.96;53.45
65396;HTU21D;52004;45.136;39.010;2022-09-12T14:43:58;22.93;53.49
65396;HTU21D;52004;45.136;39.010;2022-09-12T14:46:34;22.93;53.52
65396;HTU21D;52004;45.136;39.010;2022-09-12T14:51:31;22.88;53.59
65396;HTU21D;52004;45.136;39.010;2022-09-12T14:53:58;22.86;53.61
65396;HTU21D;52004;45.136;39.010;2022-09-12T14:56:41;22.84;53.67
65396;HTU21D;52004;45.136;39.010;2022-09-12T14:59:25;22.80;53.72
65396;HTU21D;52004;45.136;39.010;2022-09-12T15:04:37;22.72;53.87
65396;HTU21D;52004;45.136;39.010;2022-09-12T15:07:13;0.00;53.89
65396;HTU21D;52004;45.136;39.010;2022-09-12T15:09:39;22.69;53.93
65396;HTU21D;52004;45.136;39.010;2022-09-12T15:12:07;22.70;53.94
65396;HTU21D;52004;45.136;39.010;2022-09-12T15:14:33;22.67;53.97
65396;HTU21D;52004;45.136;39.010;2022-09-12T15:16:59;22.66;53.97
65396;HTU21D;52004;45.136;39.010;2022-09-12T15:19:25;22.65;54.00
65396;HTU21D;52004;45.136;39.010;2022-09-12T15:21:51;22.63;54.02
65396;HTU21D;52004;45.136;39.010;2022-09-12T15:24:17;22.62;54.05
65396;HTU21D;52004;45.136;39.010;2022-09-12T15:26:43;22.57;54.11
65396;HTU21D;52004;45.136;39.010;2022-09-12T15:29:09;22.52;54.16
65396;HTU21D;52004;45.136;39.010;2022-09-12T15:31:34;22.47;54.23
65396;HTU21D;52004;45.136;39.010;2022-09-12T15:34:01;22.41;54.29
65396;HTU21D;52004;45.136;39.010;2022-09-12T15:36:27;22.37;54.33
65396;HTU21D;52004;45.136;39.010;2022-09-12T15:38:56;22.32;54.43
65396;HTU21D;52004;45.136;39.010;2022-09-12T15:41:31;22.25;54.48
65396;HTU21D;52004;45.136;39.010;2022-09-12T15:43:58;22.20;54.55
65396;HTU21D;52004;45.136;39.010;2022-09-12T15:46:24;22.13;54.63
65396;HTU21D;52004;45.136;39.010;2022-09-12T15:48:50;22.07;54.71
65396;HTU21D;52004;45.136;39.010;2022-09-12T15:51:17;22.02;54.80
65396;HTU21D;52004;45.136;39.010;2022-09-12T15:53:43;21.96;54.84
65396;HTU21D;52004;45.136;39.010;2022-09-12T15:56:09;21.92;54.87
65396;HTU21D;52004;45.136;39.010;2022-09-12T15:58:35;21.88;55.00
65396;HTU21D;52004;45.136;39.010;2022-09-12T16:01:01;21.81;54.97
65396;HTU21D;52004;45.136;39.010;2022-09-12T16:03:27;21.77;55.04
65396;HTU21D;52004;45.136;39.010;2022-09-12T16:05:57;0.00;55.10
65396;HTU21D;52004;45.136;39.010;2022-09-12T16:08:24;21.67;55.14
65396;HTU21D;52004;45.136;39.010;2022-09-12T16:10:52;21.63;55.22
65396;HTU21D;52004;45.136;39.010;2022-09-12T16:13:19;21.59;55.29
65396;HTU21D;52004;45.136;39.010;2022-09-12T16:15:44;21.57;55.30
65396;HTU21D;52004;45.136;39.010;2022-09-12T16:18:10;21.55;55.33
65396;HTU21D;52004;45.136;39.010;2022-09-12T16:20:38;21.52;55.36
65396;HTU21D;52004;45.136;39.010;2022-09-12T16:23:04;21.50;55.41
65396;HTU21D;52004;45.136;39.010;2022-09-12T16:25:30;21.46;55.46
65396;HTU21D;52004;45.136;39.010;2022-09-12T16:27:56;21.44;55.52
65396;HTU21D;52004;45.136;39.010;2022-09-12T16:30:22;21.44;55.57
65396;HTU21D;52004;45.136;39.010;2022-09-12T16:32:50;21.45;55.57
65396;HTU21D;52004;45.136;39.010;2022-09-12T16:35:16;21.46;55.60
65396;HTU21D;52004;45.136;39.010;2022-09-12T16:37:42;21.46;55.61
65396;HTU21D;52004;45.136;39.010;2022-09-12T16:40:08;21.43;55.65
65396;HTU21D;52004;45.136;39.010;2022-09-12T16:42:35;21.39;55.72
65396;HTU21D;52004;45.136;39.010;2022-09-12T16:45:01;21.37;55.80
65396;HTU21D;52004;45.136;39.010;2022-09-12T16:47:27;21.34;55.87
65396;HTU21D;52004;45.136;39.010;2022-09-12T16:49:56;21.30;55.94
65396;HTU21D;52004;45.136;39.010;2022-09-12T16:52:23;21.31;55.99
65396;HTU21D;52004;45.136;39.010;2022-09-12T16:54:49;21.32;55.99
65396;HTU21D;52004;45.136;39.010;2022-09-12T16:57:15;21.35;56.00
65396;HTU21D;52004;45.136;39.010;2022-09-12T16:59:41;21.36;56.00
65396;HTU21D;52004;45.136;39.010;2022-09-12T17:02:11;21.37;56.00
65396;HTU21D;52004;45.136;39.010;2022-09-12T17:04:38;21.38;56.02
65396;HTU21D;52004;45.136;39.010;2022-09-12T17:07:03;21.39;56.03
65396;HTU21D;52004;45.136;39.010;2022-09-12T17:09:29;21.43;56.06
65396;HTU21D;52004;45.136;39.010;2022-09-12T17:11:55;21.45;56.07
65396;HTU21D;52004;45.136;39.010;2022-09-12T17:14:22;21.45;56.07
65396;HTU21D;52004;45.136;39.010;2022-09-12T17:16:48;21.46;56.09
65396;HTU21D;52004;45.136;39.010;2022-09-12T17:19:15;0.00;56.10